Friday, October 19, 2018, 8:03 AM EDT
Back to Local

KBFD, Bradford Regional Airport

Location: Cyclone, PA, United States Lat: 41.8
Local Time: 8:03 AM EDT (12:03 GMT) Lon: -78.633
Time Zone: US/Eastern Elev: 2142 ft

Show me the last for .
Show Decoded

2018-10-19 07:53 METAR KBFD 191153Z AUTO VRB04KT 10SM CLR 02/M03 A3023 RMK AO2 SLP252 T00171028
                 10017 21017 58007 =
2018-10-19 06:53 METAR KBFD 191053Z AUTO VRB05KT 10SM CLR 01/M03 A3024 RMK AO2 SLP257 T00111033 =
2018-10-19 05:53 METAR KBFD 190953Z AUTO 00000KT 10SM CLR 01/M03 A3025 RMK AO2 SLP260 T00061033 =
2018-10-19 04:53 METAR KBFD 190853Z AUTO 25004KT 10SM CLR 01/M03 A3025 RMK AO2 SLP258 T00111033
                 58008 =
2018-10-19 03:53 METAR KBFD 190753Z AUTO 30003KT 10SM CLR 01/M03 A3026 RMK AO2 SLP262 T00111033 =
2018-10-19 02:53 METAR KBFD 190653Z AUTO VRB03KT 10SM CLR 01/M03 A3027 RMK AO2 SLP267 T00061028 =
2018-10-19 01:53 METAR KBFD 190553Z AUTO 00000KT 10SM CLR 01/M03 A3028 RMK AO2 SLP268 T00061028
                 10028 20006 56008 =
2018-10-19 00:53 METAR KBFD 190453Z AUTO 00000KT 10SM CLR 01/M03 A3028 RMK AO2 SLP271 T00111028
                 400670000 =
2018-10-18 23:53 METAR KBFD 190353Z AUTO 00000KT 10SM CLR 01/M03 A3029 RMK AO2 SLP275 T00061028 =
2018-10-18 22:53 METAR KBFD 190253Z AUTO 00000KT 10SM CLR 01/M02 A3030 RMK AO2 SLP279 T00111022
                 58007 =
2018-10-18 21:53 METAR KBFD 190153Z AUTO 00000KT 10SM CLR 02/M02 A3031 RMK AO2 SLP282 T00171022 =
2018-10-18 20:53 METAR KBFD 190053Z AUTO 00000KT 10SM CLR 02/M02 A3032 RMK AO2 SLP285 T00221022 =
2018-10-18 19:53 METAR KBFD 182353Z AUTO 28004KT 10SM CLR 02/M02 A3033 RMK AO2 SLP287 T00221022
                 10067 20022 58006 =
2018-10-18 18:53 METAR KBFD 182253Z AUTO 28004KT 10SM CLR 03/M02 A3033 RMK AO2 SLP289 T00331022 =
2018-10-18 17:53 METAR KBFD 182153Z AUTO 27005KT 10SM CLR 05/M03 A3034 RMK AO2 SLP290 T00501028 =
2018-10-18 16:53 METAR KBFD 182053Z AUTO 27009G16KT 230V290 10SM CLR 06/M03 A3035 RMK AO2 SLP291
                 T00561033 56012 =
2018-10-18 15:53 METAR KBFD 181953Z AUTO 32011G17KT 10SM SCT038 06/M03 A3036 RMK AO2 SLP295
                 T00611028 =
2018-10-18 14:53 METAR KBFD 181853Z AUTO 30011KT 10SM FEW035 05/M03 A3036 RMK AO2 SLP297
                 T00501033 =
2018-10-18 13:53 METAR KBFD 181753Z AUTO 28010G18KT 10SM BKN034 05/M03 A3038 RMK AO2 SLP303
                 T00501033 10056 20000 58005 =
2018-10-18 12:53 METAR KBFD 181653Z AUTO 31012KT 10SM BKN033 03/M04 A3040 RMK AO2 SLP309
                 T00331039 =
2018-10-18 11:53 METAR KBFD 181553Z AUTO 30012KT 10SM BKN031 03/M04 A3040 RMK AO2 SLP311
                 T00281044 =
2018-10-18 11:50 METAR KBFD 181550Z AUTO 31011KT 10SM BKN031 03/M04 A3040 RMK AO2 =
2018-10-18 11:18 METAR KBFD 181518Z AUTO 31009G17KT 10SM OVC029 02/M04 A3040 RMK AO2 T00171044 =
2018-10-18 11:08 METAR KBFD 181508Z AUTO 29009G19KT 10SM OVC030 02/M04 A3039 RMK AO2 T00221039 =
2018-10-18 10:53 METAR KBFD 181453Z AUTO 32012KT 10SM OVC028 02/M04 A3040 RMK AO2 SLP311
                 T00221039 51016 =
2018-10-18 09:53 METAR KBFD 181353Z AUTO 33012G19KT 10SM BKN028 OVC033 01/M04 A3038 RMK AO2
                 SLP307 T00111044 =
2018-10-18 09:36 METAR KBFD 181336Z AUTO 32010KT 310V010 10SM BKN027 BKN034 02/M03 A3038 RMK AO2
                 T00171033 =
2018-10-18 08:53 METAR KBFD 181253Z AUTO 33010KT 10SM FEW025 OVC034 01/M03 A3037 RMK AO2 SLP304
                 T00061033 =

Support USWX by starting your Amazon purchase here.